sensor_id;sensor_type;location;lat;lon;timestamp;P1;durP1;ratioP1;P2;durP2;ratioP2
19593;SDS011;9944;48.240;16.478;2023-07-22T00:04:21;1.42;;;1.17;;
19593;SDS011;9944;48.240;16.478;2023-07-22T00:08:46;4.18;;;1.55;;
19593;SDS011;9944;48.240;16.478;2023-07-22T00:13:10;2.25;;;1.70;;
19593;SDS011;9944;48.240;16.478;2023-07-22T00:17:33;1.73;;;1.33;;
19593;SDS011;9944;48.240;16.478;2023-07-22T00:21:57;1.60;;;1.38;;
19593;SDS011;9944;48.240;16.478;2023-07-22T00:26:22;2.78;;;1.58;;
19593;SDS011;9944;48.240;16.478;2023-07-22T00:30:47;2.10;;;1.50;;
19593;SDS011;9944;48.240;16.478;2023-07-22T00:35:11;2.25;;;1.63;;
19593;SDS011;9944;48.240;16.478;2023-07-22T00:39:35;1.98;;;1.50;;
19593;SDS011;9944;48.240;16.478;2023-07-22T00:44:00;1.50;;;1.30;;
19593;SDS011;9944;48.240;16.478;2023-07-22T00:48:24;2.80;;;1.70;;
19593;SDS011;9944;48.240;16.478;2023-07-22T00:52:50;1.67;;;1.33;;
19593;SDS011;9944;48.240;16.478;2023-07-22T00:57:15;2.38;;;1.60;;
19593;SDS011;9944;48.240;16.478;2023-07-22T01:01:40;1.40;;;1.30;;
19593;SDS011;9944;48.240;16.478;2023-07-22T01:06:04;1.92;;;1.40;;
19593;SDS011;9944;48.240;16.478;2023-07-22T01:10:27;1.33;;;1.23;;
19593;SDS011;9944;48.240;16.478;2023-07-22T01:14:51;1.48;;;1.38;;
19593;SDS011;9944;48.240;16.478;2023-07-22T01:19:16;1.65;;;1.27;;
19593;SDS011;9944;48.240;16.478;2023-07-22T01:23:43;2.33;;;1.42;;
19593;SDS011;9944;48.240;16.478;2023-07-22T01:28:09;1.90;;;1.30;;
19593;SDS011;9944;48.240;16.478;2023-07-22T01:32:34;1.95;;;1.58;;
19593;SDS011;9944;48.240;16.478;2023-07-22T01:36:57;2.65;;;1.60;;
19593;SDS011;9944;48.240;16.478;2023-07-22T01:41:23;3.08;;;1.70;;
19593;SDS011;9944;48.240;16.478;2023-07-22T01:45:47;2.03;;;1.30;;
19593;SDS011;9944;48.240;16.478;2023-07-22T01:50:11;2.05;;;1.60;;
19593;SDS011;9944;48.240;16.478;2023-07-22T01:54:35;1.50;;;1.33;;
19593;SDS011;9944;48.240;16.478;2023-07-22T01:59:00;1.88;;;1.40;;
19593;SDS011;9944;48.240;16.478;2023-07-22T02:03:24;2.10;;;1.38;;
19593;SDS011;9944;48.240;16.478;2023-07-22T02:07:49;1.55;;;1.17;;
19593;SDS011;9944;48.240;16.478;2023-07-22T02:12:14;1.38;;;1.20;;
19593;SDS011;9944;48.240;16.478;2023-07-22T02:16:39;1.33;;;1.23;;
19593;SDS011;9944;48.240;16.478;2023-07-22T02:21:03;2.08;;;1.33;;
19593;SDS011;9944;48.240;16.478;2023-07-22T02:25:27;1.95;;;1.27;;
19593;SDS011;9944;48.240;16.478;2023-07-22T02:29:51;1.30;;;0.85;;
19593;SDS011;9944;48.240;16.478;2023-07-22T02:34:16;1.90;;;1.20;;
19593;SDS011;9944;48.240;16.478;2023-07-22T02:38:40;1.40;;;1.15;;
19593;SDS011;9944;48.240;16.478;2023-07-22T02:43:04;2.17;;;1.20;;
19593;SDS011;9944;48.240;16.478;2023-07-22T02:47:28;1.52;;;1.40;;
19593;SDS011;9944;48.240;16.478;2023-07-22T02:51:54;1.17;;;1.08;;
19593;SDS011;9944;48.240;16.478;2023-07-22T02:56:18;1.70;;;1.15;;
19593;SDS011;9944;48.240;16.478;2023-07-22T03:00:42;1.40;;;1.27;;
19593;SDS011;9944;48.240;16.478;2023-07-22T03:05:07;1.10;;;0.93;;
19593;SDS011;9944;48.240;16.478;2023-07-22T03:09:33;1.58;;;1.30;;
19593;SDS011;9944;48.240;16.478;2023-07-22T03:13:57;1.52;;;1.13;;
19593;SDS011;9944;48.240;16.478;2023-07-22T03:18:22;1.33;;;1.23;;
19593;SDS011;9944;48.240;16.478;2023-07-22T03:22:45;1.50;;;1.20;;
19593;SDS011;9944;48.240;16.478;2023-07-22T03:27:11;1.65;;;1.40;;
19593;SDS011;9944;48.240;16.478;2023-07-22T03:31:35;1.70;;;1.33;;
19593;SDS011;9944;48.240;16.478;2023-07-22T03:36:00;2.17;;;1.50;;
19593;SDS011;9944;48.240;16.478;2023-07-22T03:40:23;1.90;;;1.30;;
19593;SDS011;9944;48.240;16.478;2023-07-22T03:44:53;1.63;;;1.17;;
19593;SDS011;9944;48.240;16.478;2023-07-22T03:49:17;3.33;;;1.90;;
19593;SDS011;9944;48.240;16.478;2023-07-22T03:53:41;2.05;;;1.58;;
19593;SDS011;9944;48.240;16.478;2023-07-22T03:58:04;1.83;;;1.52;;
19593;SDS011;9944;48.240;16.478;2023-07-22T04:02:30;2.50;;;1.60;;
19593;SDS011;9944;48.240;16.478;2023-07-22T04:06:53;2.92;;;1.67;;
19593;SDS011;9944;48.240;16.478;2023-07-22T04:11:17;3.80;;;1.67;;
19593;SDS011;9944;48.240;16.478;2023-07-22T04:15:41;4.30;;;1.85;;
19593;SDS011;9944;48.240;16.478;2023-07-22T04:20:07;2.20;;;1.50;;
19593;SDS011;9944;48.240;16.478;2023-07-22T04:24:32;2.20;;;1.67;;
19593;SDS011;9944;48.240;16.478;2023-07-22T04:28:56;2.60;;;1.63;;
19593;SDS011;9944;48.240;16.478;2023-07-22T04:33:20;2.22;;;1.60;;
19593;SDS011;9944;48.240;16.478;2023-07-22T04:37:46;2.47;;;1.83;;
19593;SDS011;9944;48.240;16.478;2023-07-22T04:42:10;2.80;;;1.70;;
19593;SDS011;9944;48.240;16.478;2023-07-22T04:46:33;2.05;;;1.60;;
19593;SDS011;9944;48.240;16.478;2023-07-22T04:50:57;2.53;;;1.80;;
19593;SDS011;9944;48.240;16.478;2023-07-22T04:55:22;2.20;;;1.73;;
19593;SDS011;9944;48.240;16.478;2023-07-22T04:59:46;2.38;;;1.88;;
19593;SDS011;9944;48.240;16.478;2023-07-22T05:04:10;2.17;;;1.55;;
19593;SDS011;9944;48.240;16.478;2023-07-22T05:08:34;3.38;;;1.80;;
19593;SDS011;9944;48.240;16.478;2023-07-22T05:13:01;1.70;;;1.40;;
19593;SDS011;9944;48.240;16.478;2023-07-22T05:17:26;1.75;;;1.60;;
19593;SDS011;9944;48.240;16.478;2023-07-22T05:21:51;2.35;;;1.77;;
19593;SDS011;9944;48.240;16.478;2023-07-22T05:26:15;2.53;;;1.60;;
19593;SDS011;9944;48.240;16.478;2023-07-22T05:30:40;2.15;;;1.55;;
19593;SDS011;9944;48.240;16.478;2023-07-22T05:35:04;3.50;;;1.95;;
19593;SDS011;9944;48.240;16.478;2023-07-22T05:39:29;1.88;;;1.50;;
19593;SDS011;9944;48.240;16.478;2023-07-22T05:43:52;3.70;;;1.40;;
19593;SDS011;9944;48.240;16.478;2023-07-22T05:48:17;2.67;;;1.58;;
19593;SDS011;9944;48.240;16.478;2023-07-22T05:52:43;2.25;;;1.70;;
19593;SDS011;9944;48.240;16.478;2023-07-22T05:57:08;1.30;;;1.20;;
19593;SDS011;9944;48.240;16.478;2023-07-22T06:01:32;2.05;;;1.55;;
19593;SDS011;9944;48.240;16.478;2023-07-22T06:05:58;1.48;;;1.20;;
19593;SDS011;9944;48.240;16.478;2023-07-22T06:10:22;1.73;;;1.40;;
19593;SDS011;9944;48.240;16.478;2023-07-22T06:14:45;1.20;;;1.10;;
19593;SDS011;9944;48.240;16.478;2023-07-22T06:19:09;1.60;;;1.50;;
19593;SDS011;9944;48.240;16.478;2023-07-22T06:23:34;1.40;;;1.30;;
19593;SDS011;9944;48.240;16.478;2023-07-22T06:27:58;1.73;;;1.20;;
19593;SDS011;9944;48.240;16.478;2023-07-22T06:32:22;2.20;;;1.50;;
19593;SDS011;9944;48.240;16.478;2023-07-22T06:36:46;1.55;;;1.42;;
19593;SDS011;9944;48.240;16.478;2023-07-22T06:41:12;4.72;;;1.55;;
19593;SDS011;9944;48.240;16.478;2023-07-22T06:45:35;2.65;;;1.30;;
19593;SDS011;9944;48.240;16.478;2023-07-22T06:50:00;1.42;;;1.33;;
19593;SDS011;9944;48.240;16.478;2023-07-22T06:54:24;2.22;;;1.30;;
19593;SDS011;9944;48.240;16.478;2023-07-22T06:58:49;1.60;;;1.27;;
19593;SDS011;9944;48.240;16.478;2023-07-22T07:03:13;2.30;;;1.55;;
19593;SDS011;9944;48.240;16.478;2023-07-22T07:07:37;1.92;;;1.60;;
19593;SDS011;9944;48.240;16.478;2023-07-22T07:12:01;2.60;;;1.60;;
19593;SDS011;9944;48.240;16.478;2023-07-22T07:16:26;1.30;;;1.20;;
19593;SDS011;9944;48.240;16.478;2023-07-22T07:20:52;1.67;;;1.40;;
19593;SDS011;9944;48.240;16.478;2023-07-22T07:25:15;2.00;;;1.45;;
19593;SDS011;9944;48.240;16.478;2023-07-22T07:29:39;2.25;;;1.20;;
19593;SDS011;9944;48.240;16.478;2023-07-22T07:34:17;1.48;;;1.17;;
19593;SDS011;9944;48.240;16.478;2023-07-22T07:38:41;1.48;;;1.10;;
19593;SDS011;9944;48.240;16.478;2023-07-22T07:43:05;3.25;;;1.40;;
19593;SDS011;9944;48.240;16.478;2023-07-22T07:47:28;2.75;;;1.40;;
19593;SDS011;9944;48.240;16.478;2023-07-22T07:51:54;1.17;;;1.05;;
19593;SDS011;9944;48.240;16.478;2023-07-22T07:56:18;1.25;;;1.10;;
19593;SDS011;9944;48.240;16.478;2023-07-22T08:00:43;1.90;;;1.35;;
19593;SDS011;9944;48.240;16.478;2023-07-22T08:05:07;6.00;;;1.35;;
19593;SDS011;9944;48.240;16.478;2023-07-22T08:09:32;1.40;;;1.23;;
19593;SDS011;9944;48.240;16.478;2023-07-22T08:13:56;1.60;;;1.35;;
19593;SDS011;9944;48.240;16.478;2023-07-22T08:18:20;1.95;;;1.13;;
19593;SDS011;9944;48.240;16.478;2023-07-22T08:22:44;0.98;;;0.90;;
19593;SDS011;9944;48.240;16.478;2023-07-22T08:27:09;1.33;;;1.10;;
19593;SDS011;9944;48.240;16.478;2023-07-22T08:31:33;3.10;;;1.17;;
19593;SDS011;9944;48.240;16.478;2023-07-22T08:35:56;2.30;;;1.20;;
19593;SDS011;9944;48.240;16.478;2023-07-22T08:40:20;1.30;;;1.13;;
19593;SDS011;9944;48.240;16.478;2023-07-22T08:44:47;1.40;;;1.08;;
19593;SDS011;9944;48.240;16.478;2023-07-22T08:49:12;1.30;;;1.20;;
19593;SDS011;9944;48.240;16.478;2023-07-22T08:53:36;1.17;;;1.08;;
19593;SDS011;9944;48.240;16.478;2023-07-22T08:58:01;1.10;;;1.00;;
19593;SDS011;9944;48.240;16.478;2023-07-22T09:02:27;0.85;;;0.85;;
19593;SDS011;9944;48.240;16.478;2023-07-22T09:06:51;1.75;;;1.17;;
19593;SDS011;9944;48.240;16.478;2023-07-22T09:11:17;1.27;;;1.08;;
19593;SDS011;9944;48.240;16.478;2023-07-22T09:15:43;1.08;;;0.90;;
19593;SDS011;9944;48.240;16.478;2023-07-22T09:20:12;1.20;;;1.00;;
19593;SDS011;9944;48.240;16.478;2023-07-22T09:24:37;1.35;;;1.05;;
19593;SDS011;9944;48.240;16.478;2023-07-22T09:29:01;1.13;;;0.98;;
19593;SDS011;9944;48.240;16.478;2023-07-22T09:33:25;1.33;;;1.20;;
19593;SDS011;9944;48.240;16.478;2023-07-22T09:37:52;1.52;;;1.08;;
19593;SDS011;9944;48.240;16.478;2023-07-22T09:42:23;2.00;;;1.00;;
19593;SDS011;9944;48.240;16.478;2023-07-22T09:46:48;1.17;;;1.08;;
19593;SDS011;9944;48.240;16.478;2023-07-22T09:51:13;2.15;;;1.25;;
19593;SDS011;9944;48.240;16.478;2023-07-22T09:55:38;0.82;;;0.80;;
19593;SDS011;9944;48.240;16.478;2023-07-22T10:00:02;3.33;;;1.25;;
19593;SDS011;9944;48.240;16.478;2023-07-22T10:04:33;1.17;;;0.98;;
19593;SDS011;9944;48.240;16.478;2023-07-22T10:08:58;2.50;;;1.17;;
19593;SDS011;9944;48.240;16.478;2023-07-22T10:13:27;1.55;;;1.10;;
19593;SDS011;9944;48.240;16.478;2023-07-22T10:17:51;1.15;;;1.00;;
19593;SDS011;9944;48.240;16.478;2023-07-22T10:22:17;1.45;;;1.35;;
19593;SDS011;9944;48.240;16.478;2023-07-22T10:26:41;1.10;;;1.00;;
19593;SDS011;9944;48.240;16.478;2023-07-22T10:31:10;0.95;;;0.90;;
19593;SDS011;9944;48.240;16.478;2023-07-22T10:35:39;1.38;;;1.05;;
19593;SDS011;9944;48.240;16.478;2023-07-22T10:40:17;1.10;;;0.98;;
19593;SDS011;9944;48.240;16.478;2023-07-22T10:44:42;1.45;;;1.00;;
19593;SDS011;9944;48.240;16.478;2023-07-22T10:49:10;0.90;;;0.80;;
19593;SDS011;9944;48.240;16.478;2023-07-22T10:53:38;2.40;;;1.00;;
19593;SDS011;9944;48.240;16.478;2023-07-22T10:58:05;0.90;;;0.90;;
19593;SDS011;9944;48.240;16.478;2023-07-22T11:02:29;2.03;;;1.30;;
19593;SDS011;9944;48.240;16.478;2023-07-22T11:06:55;1.15;;;0.95;;
19593;SDS011;9944;48.240;16.478;2023-07-22T11:11:19;0.90;;;0.82;;
19593;SDS011;9944;48.240;16.478;2023-07-22T11:15:46;5.15;;;1.23;;
19593;SDS011;9944;48.240;16.478;2023-07-22T11:20:10;1.33;;;1.05;;
19593;SDS011;9944;48.240;16.478;2023-07-22T11:24:36;1.30;;;1.10;;
19593;SDS011;9944;48.240;16.478;2023-07-22T11:29:00;1.80;;;1.13;;
19593;SDS011;9944;48.240;16.478;2023-07-22T11:33:25;1.45;;;1.10;;
19593;SDS011;9944;48.240;16.478;2023-07-22T11:37:48;2.05;;;1.00;;
19593;SDS011;9944;48.240;16.478;2023-07-22T11:42:14;1.17;;;0.95;;
19593;SDS011;9944;48.240;16.478;2023-07-22T11:46:46;0.90;;;0.90;;
19593;SDS011;9944;48.240;16.478;2023-07-22T11:51:11;1.35;;;0.90;;
19593;SDS011;9944;48.240;16.478;2023-07-22T11:55:35;1.00;;;0.95;;
19593;SDS011;9944;48.240;16.478;2023-07-22T12:00:07;1.42;;;1.20;;
19593;SDS011;9944;48.240;16.478;2023-07-22T12:04:33;1.30;;;1.20;;
19593;SDS011;9944;48.240;16.478;2023-07-22T12:08:57;1.38;;;1.13;;
19593;SDS011;9944;48.240;16.478;2023-07-22T12:13:21;1.40;;;1.30;;
19593;SDS011;9944;48.240;16.478;2023-07-22T12:17:47;1.50;;;1.23;;
19593;SDS011;9944;48.240;16.478;2023-07-22T12:22:12;1.77;;;1.30;;
19593;SDS011;9944;48.240;16.478;2023-07-22T12:26:35;1.40;;;1.17;;
19593;SDS011;9944;48.240;16.478;2023-07-22T12:30:59;1.25;;;1.15;;
19593;SDS011;9944;48.240;16.478;2023-07-22T12:35:24;2.08;;;1.00;;
19593;SDS011;9944;48.240;16.478;2023-07-22T12:39:48;3.53;;;1.58;;
19593;SDS011;9944;48.240;16.478;2023-07-22T12:44:12;2.55;;;1.25;;
19593;SDS011;9944;48.240;16.478;2023-07-22T12:48:36;1.55;;;1.27;;
19593;SDS011;9944;48.240;16.478;2023-07-22T12:53:01;2.00;;;1.40;;
19593;SDS011;9944;48.240;16.478;2023-07-22T12:57:25;2.17;;;1.40;;
19593;SDS011;9944;48.240;16.478;2023-07-22T13:01:49;1.60;;;1.23;;
19593;SDS011;9944;48.240;16.478;2023-07-22T13:06:12;2.17;;;1.42;;
19593;SDS011;9944;48.240;16.478;2023-07-22T13:10:37;1.98;;;1.40;;
19593;SDS011;9944;48.240;16.478;2023-07-22T13:15:07;1.67;;;1.23;;
19593;SDS011;9944;48.240;16.478;2023-07-22T13:19:31;2.05;;;1.27;;
19593;SDS011;9944;48.240;16.478;2023-07-22T13:23:55;1.98;;;1.30;;
19593;SDS011;9944;48.240;16.478;2023-07-22T13:28:20;1.55;;;1.13;;
19593;SDS011;9944;48.240;16.478;2023-07-22T13:32:44;1.60;;;1.40;;
19593;SDS011;9944;48.240;16.478;2023-07-22T13:37:08;0.98;;;0.98;;
19593;SDS011;9944;48.240;16.478;2023-07-22T13:41:32;1.40;;;1.23;;
19593;SDS011;9944;48.240;16.478;2023-07-22T13:45:56;1.33;;;1.20;;
19593;SDS011;9944;48.240;16.478;2023-07-22T13:50:20;1.70;;;1.35;;
19593;SDS011;9944;48.240;16.478;2023-07-22T13:54:44;2.33;;;1.40;;
19593;SDS011;9944;48.240;16.478;2023-07-22T13:59:08;1.80;;;1.30;;
19593;SDS011;9944;48.240;16.478;2023-07-22T14:03:33;2.35;;;1.33;;
19593;SDS011;9944;48.240;16.478;2023-07-22T14:07:57;2.03;;;1.10;;
19593;SDS011;9944;48.240;16.478;2023-07-22T14:12:21;3.28;;;1.40;;
19593;SDS011;9944;48.240;16.478;2023-07-22T14:16:44;1.58;;;1.27;;
19593;SDS011;9944;48.240;16.478;2023-07-22T14:21:09;1.33;;;1.20;;
19593;SDS011;9944;48.240;16.478;2023-07-22T14:25:34;2.67;;;1.40;;
19593;SDS011;9944;48.240;16.478;2023-07-22T14:29:57;1.73;;;1.23;;
19593;SDS011;9944;48.240;16.478;2023-07-22T14:34:21;1.10;;;1.00;;
19593;SDS011;9944;48.240;16.478;2023-07-22T14:38:46;1.50;;;1.20;;
19593;SDS011;9944;48.240;16.478;2023-07-22T14:43:09;1.70;;;1.23;;
19593;SDS011;9944;48.240;16.478;2023-07-22T14:47:33;1.77;;;1.25;;
19593;SDS011;9944;48.240;16.478;2023-07-22T14:51:57;1.60;;;1.20;;
19593;SDS011;9944;48.240;16.478;2023-07-22T14:56:23;1.23;;;1.10;;
19593;SDS011;9944;48.240;16.478;2023-07-22T15:00:46;1.88;;;1.40;;
19593;SDS011;9944;48.240;16.478;2023-07-22T15:05:10;1.40;;;1.20;;
19593;SDS011;9944;48.240;16.478;2023-07-22T15:09:33;2.63;;;1.88;;
19593;SDS011;9944;48.240;16.478;2023-07-22T15:13:58;1.10;;;0.98;;
19593;SDS011;9944;48.240;16.478;2023-07-22T15:18:22;1.27;;;1.00;;
19593;SDS011;9944;48.240;16.478;2023-07-22T15:22:46;2.40;;;1.13;;
19593;SDS011;9944;48.240;16.478;2023-07-22T15:27:09;1.80;;;1.30;;
19593;SDS011;9944;48.240;16.478;2023-07-22T15:31:34;2.67;;;1.20;;
19593;SDS011;9944;48.240;16.478;2023-07-22T15:35:58;1.50;;;1.30;;
19593;SDS011;9944;48.240;16.478;2023-07-22T15:40:21;1.40;;;1.20;;
19593;SDS011;9944;48.240;16.478;2023-07-22T15:44:46;1.90;;;1.33;;
19593;SDS011;9944;48.240;16.478;2023-07-22T15:49:33;1.17;;;1.08;;
19593;SDS011;9944;48.240;16.478;2023-07-22T15:53:56;2.30;;;1.38;;
19593;SDS011;9944;48.240;16.478;2023-07-22T15:58:20;1.40;;;1.10;;
19593;SDS011;9944;48.240;16.478;2023-07-22T16:02:43;1.83;;;1.35;;
19593;SDS011;9944;48.240;16.478;2023-07-22T16:07:08;1.55;;;1.20;;
19593;SDS011;9944;48.240;16.478;2023-07-22T16:11:32;1.88;;;1.20;;
19593;SDS011;9944;48.240;16.478;2023-07-22T16:15:55;3.53;;;1.27;;
19593;SDS011;9944;48.240;16.478;2023-07-22T16:20:18;2.50;;;1.30;;
19593;SDS011;9944;48.240;16.478;2023-07-22T16:24:23;1.75;;;1.27;;
19593;SDS011;9944;48.240;16.478;2023-07-22T16:28:47;1.83;;;1.50;;
19593;SDS011;9944;48.240;16.478;2023-07-22T16:33:10;1.77;;;1.40;;
19593;SDS011;9944;48.240;16.478;2023-07-22T16:37:34;1.70;;;1.40;;
19593;SDS011;9944;48.240;16.478;2023-07-22T16:41:59;2.85;;;1.38;;
19593;SDS011;9944;48.240;16.478;2023-07-22T16:46:23;1.40;;;1.10;;
19593;SDS011;9944;48.240;16.478;2023-07-22T16:50:47;1.95;;;1.48;;
19593;SDS011;9944;48.240;16.478;2023-07-22T16:55:11;1.55;;;1.20;;
19593;SDS011;9944;48.240;16.478;2023-07-22T16:59:40;1.85;;;1.40;;
19593;SDS011;9944;48.240;16.478;2023-07-22T17:04:04;1.80;;;1.20;;
19593;SDS011;9944;48.240;16.478;2023-07-22T17:08:29;2.25;;;1.30;;
19593;SDS011;9944;48.240;16.478;2023-07-22T17:12:53;1.55;;;1.27;;
19593;SDS011;9944;48.240;16.478;2023-07-22T17:17:17;2.10;;;1.30;;
19593;SDS011;9944;48.240;16.478;2023-07-22T17:21:41;2.88;;;1.50;;
19593;SDS011;9944;48.240;16.478;2023-07-22T17:26:04;3.47;;;1.42;;
19593;SDS011;9944;48.240;16.478;2023-07-22T17:30:35;1.67;;;1.30;;
19593;SDS011;9944;48.240;16.478;2023-07-22T17:35:00;2.42;;;1.58;;
19593;SDS011;9944;48.240;16.478;2023-07-22T17:39:24;2.40;;;1.35;;
19593;SDS011;9944;48.240;16.478;2023-07-22T17:43:47;1.60;;;1.20;;
19593;SDS011;9944;48.240;16.478;2023-07-22T17:48:11;2.95;;;1.40;;
19593;SDS011;9944;48.240;16.478;2023-07-22T17:52:35;2.00;;;1.35;;
19593;SDS011;9944;48.240;16.478;2023-07-22T17:56:59;1.70;;;1.50;;
19593;SDS011;9944;48.240;16.478;2023-07-22T18:01:22;2.63;;;1.48;;
19593;SDS011;9944;48.240;16.478;2023-07-22T18:05:47;1.80;;;1.50;;
19593;SDS011;9944;48.240;16.478;2023-07-22T18:10:12;2.65;;;1.52;;
19593;SDS011;9944;48.240;16.478;2023-07-22T18:14:36;1.83;;;1.30;;
19593;SDS011;9944;48.240;16.478;2023-07-22T18:18:59;2.30;;;1.58;;
19593;SDS011;9944;48.240;16.478;2023-07-22T18:23:23;3.05;;;1.52;;
19593;SDS011;9944;48.240;16.478;2023-07-22T18:27:48;1.88;;;1.35;;
19593;SDS011;9944;48.240;16.478;2023-07-22T18:32:11;2.55;;;1.40;;
19593;SDS011;9944;48.240;16.478;2023-07-22T18:36:34;1.75;;;1.42;;
19593;SDS011;9944;48.240;16.478;2023-07-22T18:40:58;1.95;;;1.20;;
19593;SDS011;9944;48.240;16.478;2023-07-22T18:45:23;1.90;;;1.30;;
19593;SDS011;9944;48.240;16.478;2023-07-22T18:49:47;1.95;;;1.65;;
19593;SDS011;9944;48.240;16.478;2023-07-22T18:54:10;2.00;;;1.40;;
19593;SDS011;9944;48.240;16.478;2023-07-22T18:58:34;2.83;;;1.83;;
19593;SDS011;9944;48.240;16.478;2023-07-22T19:02:59;2.80;;;1.90;;
19593;SDS011;9944;48.240;16.478;2023-07-22T19:07:22;1.58;;;1.45;;
19593;SDS011;9944;48.240;16.478;2023-07-22T19:11:47;2.22;;;1.65;;
19593;SDS011;9944;48.240;16.478;2023-07-22T19:28:20;1.80;;;1.50;;
19593;SDS011;9944;48.240;16.478;2023-07-22T19:32:24;2.55;;;1.77;;
19593;SDS011;9944;48.240;16.478;2023-07-22T19:36:27;2.30;;;1.50;;
19593;SDS011;9944;48.240;16.478;2023-07-22T19:40:31;2.00;;;1.60;;
19593;SDS011;9944;48.240;16.478;2023-07-22T19:44:35;3.03;;;1.80;;
19593;SDS011;9944;48.240;16.478;2023-07-22T19:48:39;2.30;;;1.60;;
19593;SDS011;9944;48.240;16.478;2023-07-22T19:53:01;2.38;;;1.60;;
19593;SDS011;9944;48.240;16.478;2023-07-22T19:57:05;1.88;;;1.60;;
19593;SDS011;9944;48.240;16.478;2023-07-22T20:01:27;2.50;;;1.75;;
19593;SDS011;9944;48.240;16.478;2023-07-22T20:05:31;2.35;;;1.55;;
19593;SDS011;9944;48.240;16.478;2023-07-22T20:09:35;2.35;;;1.60;;
19593;SDS011;9944;48.240;16.478;2023-07-22T20:13:38;2.28;;;1.63;;
19593;SDS011;9944;48.240;16.478;2023-07-22T20:17:42;4.43;;;1.95;;
19593;SDS011;9944;48.240;16.478;2023-07-22T20:21:46;2.45;;;1.75;;
19593;SDS011;9944;48.240;16.478;2023-07-22T20:25:49;2.00;;;1.50;;
19593;SDS011;9944;48.240;16.478;2023-07-22T20:29:52;2.38;;;1.90;;
19593;SDS011;9944;48.240;16.478;2023-07-22T20:33:57;2.28;;;1.70;;
19593;SDS011;9944;48.240;16.478;2023-07-22T20:38:02;2.20;;;1.85;;
19593;SDS011;9944;48.240;16.478;2023-07-22T20:42:06;3.08;;;2.08;;
19593;SDS011;9944;48.240;16.478;2023-07-22T20:46:09;2.17;;;1.48;;
19593;SDS011;9944;48.240;16.478;2023-07-22T20:50:14;2.33;;;1.73;;
19593;SDS011;9944;48.240;16.478;2023-07-22T20:54:17;2.75;;;1.83;;
19593;SDS011;9944;48.240;16.478;2023-07-22T20:58:20;2.35;;;1.70;;
19593;SDS011;9944;48.240;16.478;2023-07-22T21:02:23;4.32;;;1.80;;
19593;SDS011;9944;48.240;16.478;2023-07-22T21:06:28;3.38;;;2.08;;
19593;SDS011;9944;48.240;16.478;2023-07-22T21:10:31;2.63;;;1.70;;
19593;SDS011;9944;48.240;16.478;2023-07-22T21:14:34;3.03;;;1.77;;
19593;SDS011;9944;48.240;16.478;2023-07-22T21:18:37;2.42;;;2.00;;
19593;SDS011;9944;48.240;16.478;2023-07-22T21:22:42;2.70;;;1.88;;
19593;SDS011;9944;48.240;16.478;2023-07-22T21:26:45;2.50;;;1.70;;
19593;SDS011;9944;48.240;16.478;2023-07-22T21:30:49;3.30;;;1.83;;
19593;SDS011;9944;48.240;16.478;2023-07-22T21:34:52;2.20;;;1.90;;
19593;SDS011;9944;48.240;16.478;2023-07-22T21:38:57;3.10;;;2.17;;
19593;SDS011;9944;48.240;16.478;2023-07-22T21:43:00;2.13;;;1.65;;
19593;SDS011;9944;48.240;16.478;2023-07-22T21:47:04;2.83;;;2.08;;
19593;SDS011;9944;48.240;16.478;2023-07-22T21:51:08;3.55;;;1.83;;
19593;SDS011;9944;48.240;16.478;2023-07-22T21:55:12;3.75;;;2.13;;
19593;SDS011;9944;48.240;16.478;2023-07-22T21:59:15;2.90;;;2.58;;
19593;SDS011;9944;48.240;16.478;2023-07-22T22:03:18;2.95;;;2.00;;
19593;SDS011;9944;48.240;16.478;2023-07-22T22:07:22;2.83;;;2.00;;
19593;SDS011;9944;48.240;16.478;2023-07-22T22:11:26;2.90;;;2.05;;
19593;SDS011;9944;48.240;16.478;2023-07-22T22:15:31;3.45;;;2.08;;
19593;SDS011;9944;48.240;16.478;2023-07-22T22:19:35;3.40;;;2.00;;
19593;SDS011;9944;48.240;16.478;2023-07-22T22:23:38;3.45;;;1.77;;
19593;SDS011;9944;48.240;16.478;2023-07-22T22:27:42;2.38;;;2.05;;
19593;SDS011;9944;48.240;16.478;2023-07-22T22:31:46;2.97;;;1.92;;
19593;SDS011;9944;48.240;16.478;2023-07-22T22:35:49;3.85;;;1.85;;
19593;SDS011;9944;48.240;16.478;2023-07-22T22:39:53;2.72;;;1.88;;
19593;SDS011;9944;48.240;16.478;2023-07-22T22:43:57;3.40;;;2.00;;
19593;SDS011;9944;48.240;16.478;2023-07-22T22:48:00;2.38;;;1.98;;
19593;SDS011;9944;48.240;16.478;2023-07-22T22:52:04;4.07;;;2.25;;
19593;SDS011;9944;48.240;16.478;2023-07-22T22:56:08;4.25;;;2.15;;
19593;SDS011;9944;48.240;16.478;2023-07-22T23:00:13;3.92;;;2.50;;
19593;SDS011;9944;48.240;16.478;2023-07-22T23:04:17;2.55;;;2.00;;
19593;SDS011;9944;48.240;16.478;2023-07-22T23:08:21;3.40;;;2.00;;
19593;SDS011;9944;48.240;16.478;2023-07-22T23:12:24;2.78;;;2.00;;
19593;SDS011;9944;48.240;16.478;2023-07-22T23:16:28;2.60;;;1.98;;
19593;SDS011;9944;48.240;16.478;2023-07-22T23:20:32;2.88;;;1.92;;
19593;SDS011;9944;48.240;16.478;2023-07-22T23:24:35;3.53;;;2.28;;
19593;SDS011;9944;48.240;16.478;2023-07-22T23:28:39;3.10;;;2.20;;
19593;SDS011;9944;48.240;16.478;2023-07-22T23:32:45;2.55;;;2.10;;
19593;SDS011;9944;48.240;16.478;2023-07-22T23:36:48;2.42;;;1.85;;
19593;SDS011;9944;48.240;16.478;2023-07-22T23:40:51;2.13;;;1.83;;
19593;SDS011;9944;48.240;16.478;2023-07-22T23:44:56;3.22;;;2.10;;
19593;SDS011;9944;48.240;16.478;2023-07-22T23:49:00;2.28;;;1.80;;
19593;SDS011;9944;48.240;16.478;2023-07-22T23:53:04;3.42;;;2.08;;
19593;SDS011;9944;48.240;16.478;2023-07-22T23:57:07;2.67;;;1.98;;
